sensor_id;sensor_type;location;lat;lon;timestamp;temperature;humidity
22787;DHT22;63134;52.020;4.714;2023-05-10T00:02:14;13.60;99.90
22787;DHT22;63134;52.020;4.714;2023-05-10T00:05:00;13.50;99.90
22787;DHT22;63134;52.020;4.714;2023-05-10T00:07:46;13.50;99.90
22787;DHT22;63134;52.020;4.714;2023-05-10T00:10:34;13.50;99.90
22787;DHT22;63134;52.020;4.714;2023-05-10T00:13:19;13.50;99.90
22787;DHT22;63134;52.020;4.714;2023-05-10T00:16:05;13.50;99.90
22787;DHT22;63134;52.020;4.714;2023-05-10T00:18:51;13.40;99.90
22787;DHT22;63134;52.020;4.714;2023-05-10T00:21:36;13.50;99.90
22787;DHT22;63134;52.020;4.714;2023-05-10T00:24:23;13.40;99.90
22787;DHT22;63134;52.020;4.714;2023-05-10T00:27:08;13.40;99.90
22787;DHT22;63134;52.020;4.714;2023-05-10T00:29:54;13.40;99.90
22787;DHT22;63134;52.020;4.714;2023-05-10T00:32:40;13.40;99.90
22787;DHT22;63134;52.020;4.714;2023-05-10T00:35:26;13.40;99.90
22787;DHT22;63134;52.020;4.714;2023-05-10T00:38:11;13.40;99.90
22787;DHT22;63134;52.020;4.714;2023-05-10T00:40:57;13.30;99.90
22787;DHT22;63134;52.020;4.714;2023-05-10T00:43:47;13.30;99.90
22787;DHT22;63134;52.020;4.714;2023-05-10T00:46:34;13.30;99.90
22787;DHT22;63134;52.020;4.714;2023-05-10T00:49:21;13.30;99.90
22787;DHT22;63134;52.020;4.714;2023-05-10T00:52:09;13.30;99.90
22787;DHT22;63134;52.020;4.714;2023-05-10T00:54:55;13.30;99.90
22787;DHT22;63134;52.020;4.714;2023-05-10T00:57:42;13.40;99.90
22787;DHT22;63134;52.020;4.714;2023-05-10T01:00:28;13.50;99.90
22787;DHT22;63134;52.020;4.714;2023-05-10T01:03:14;13.50;99.90
22787;DHT22;63134;52.020;4.714;2023-05-10T01:06:00;13.50;99.90
22787;DHT22;63134;52.020;4.714;2023-05-10T01:08:45;13.50;99.90
22787;DHT22;63134;52.020;4.714;2023-05-10T01:11:35;13.50;99.90
22787;DHT22;63134;52.020;4.714;2023-05-10T01:14:22;13.60;99.90
22787;DHT22;63134;52.020;4.714;2023-05-10T01:17:09;13.60;99.90
22787;DHT22;63134;52.020;4.714;2023-05-10T01:19:55;13.60;99.90
22787;DHT22;63134;52.020;4.714;2023-05-10T01:36:20;13.80;99.90
22787;DHT22;63134;52.020;4.714;2023-05-10T01:42:38;13.90;99.90
22787;DHT22;63134;52.020;4.714;2023-05-10T01:45:32;13.90;99.90
22787;DHT22;63134;52.020;4.714;2023-05-10T01:48:21;14.00;99.90
22787;DHT22;63134;52.020;4.714;2023-05-10T01:51:08;14.00;99.90
22787;DHT22;63134;52.020;4.714;2023-05-10T01:54:01;13.90;99.90
22787;DHT22;63134;52.020;4.714;2023-05-10T01:56:55;13.90;99.90
22787;DHT22;63134;52.020;4.714;2023-05-10T01:59:43;13.90;99.90
22787;DHT22;63134;52.020;4.714;2023-05-10T02:02:35;13.90;99.90
22787;DHT22;63134;52.020;4.714;2023-05-10T02:05:23;13.80;99.90
22787;DHT22;63134;52.020;4.714;2023-05-10T02:08:09;13.80;99.90
22787;DHT22;63134;52.020;4.714;2023-05-10T02:10:56;13.90;99.90
22787;DHT22;63134;52.020;4.714;2023-05-10T02:13:47;13.90;99.90
22787;DHT22;63134;52.020;4.714;2023-05-10T02:16:35;14.00;99.90
22787;DHT22;63134;52.020;4.714;2023-05-10T02:19:22;14.00;99.90
22787;DHT22;63134;52.020;4.714;2023-05-10T02:22:09;14.00;99.90
22787;DHT22;63134;52.020;4.714;2023-05-10T02:24:58;14.00;99.90
22787;DHT22;63134;52.020;4.714;2023-05-10T02:27:46;14.00;99.90
22787;DHT22;63134;52.020;4.714;2023-05-10T02:30:33;14.00;99.90
22787;DHT22;63134;52.020;4.714;2023-05-10T02:33:20;14.10;99.90
22787;DHT22;63134;52.020;4.714;2023-05-10T02:36:10;14.10;99.90
22787;DHT22;63134;52.020;4.714;2023-05-10T02:38:56;14.20;99.90
22787;DHT22;63134;52.020;4.714;2023-05-10T02:41:43;14.20;99.90
22787;DHT22;63134;52.020;4.714;2023-05-10T02:44:32;14.30;99.90
22787;DHT22;63134;52.020;4.714;2023-05-10T02:47:20;14.30;99.90
22787;DHT22;63134;52.020;4.714;2023-05-10T02:50:07;14.30;99.90
22787;DHT22;63134;52.020;4.714;2023-05-10T02:52:54;14.30;99.90
22787;DHT22;63134;52.020;4.714;2023-05-10T02:55:43;14.40;99.90
22787;DHT22;63134;52.020;4.714;2023-05-10T02:58:30;14.40;99.90
22787;DHT22;63134;52.020;4.714;2023-05-10T03:01:15;14.40;99.90
22787;DHT22;63134;52.020;4.714;2023-05-10T03:04:01;14.50;99.90
22787;DHT22;63134;52.020;4.714;2023-05-10T03:06:47;14.50;99.90
22787;DHT22;63134;52.020;4.714;2023-05-10T03:09:34;14.50;99.90
22787;DHT22;63134;52.020;4.714;2023-05-10T03:12:26;14.50;99.90
22787;DHT22;63134;52.020;4.714;2023-05-10T03:18:44;14.40;99.90
22787;DHT22;63134;52.020;4.714;2023-05-10T03:21:30;14.50;99.90
22787;DHT22;63134;52.020;4.714;2023-05-10T03:24:20;14.50;99.90
22787;DHT22;63134;52.020;4.714;2023-05-10T03:27:09;14.50;99.90
22787;DHT22;63134;52.020;4.714;2023-05-10T03:29:56;14.50;99.90
22787;DHT22;63134;52.020;4.714;2023-05-10T03:32:45;14.50;99.90
22787;DHT22;63134;52.020;4.714;2023-05-10T03:35:34;14.40;99.90
22787;DHT22;63134;52.020;4.714;2023-05-10T03:38:19;14.50;99.90
22787;DHT22;63134;52.020;4.714;2023-05-10T03:41:05;14.50;99.90
22787;DHT22;63134;52.020;4.714;2023-05-10T03:43:51;14.50;99.90
22787;DHT22;63134;52.020;4.714;2023-05-10T03:46:36;14.60;99.90
22787;DHT22;63134;52.020;4.714;2023-05-10T03:49:22;14.50;99.90
22787;DHT22;63134;52.020;4.714;2023-05-10T03:52:08;14.50;99.90
22787;DHT22;63134;52.020;4.714;2023-05-10T03:54:53;14.50;99.90
22787;DHT22;63134;52.020;4.714;2023-05-10T03:57:39;14.50;99.90
22787;DHT22;63134;52.020;4.714;2023-05-10T04:00:25;14.40;99.90
22787;DHT22;63134;52.020;4.714;2023-05-10T04:03:13;14.40;99.90
22787;DHT22;63134;52.020;4.714;2023-05-10T04:06:02;14.40;99.90
22787;DHT22;63134;52.020;4.714;2023-05-10T04:08:48;14.50;99.90
22787;DHT22;63134;52.020;4.714;2023-05-10T04:11:33;14.50;99.90
22787;DHT22;63134;52.020;4.714;2023-05-10T04:14:19;14.50;99.90
22787;DHT22;63134;52.020;4.714;2023-05-10T04:17:05;14.50;99.90
22787;DHT22;63134;52.020;4.714;2023-05-10T04:19:51;14.60;99.90
22787;DHT22;63134;52.020;4.714;2023-05-10T04:22:38;14.60;99.90
22787;DHT22;63134;52.020;4.714;2023-05-10T04:25:23;14.50;99.90
22787;DHT22;63134;52.020;4.714;2023-05-10T04:28:09;14.50;99.90
22787;DHT22;63134;52.020;4.714;2023-05-10T04:31:03;14.50;99.90
22787;DHT22;63134;52.020;4.714;2023-05-10T04:33:50;14.40;99.90
22787;DHT22;63134;52.020;4.714;2023-05-10T04:36:35;14.50;99.90
22787;DHT22;63134;52.020;4.714;2023-05-10T04:39:21;14.50;99.90
22787;DHT22;63134;52.020;4.714;2023-05-10T04:42:07;14.50;99.90
22787;DHT22;63134;52.020;4.714;2023-05-10T04:44:53;14.50;99.90
22787;DHT22;63134;52.020;4.714;2023-05-10T04:47:38;14.50;99.90
22787;DHT22;63134;52.020;4.714;2023-05-10T04:50:24;14.50;99.90
22787;DHT22;63134;52.020;4.714;2023-05-10T04:53:09;14.50;99.90
22787;DHT22;63134;52.020;4.714;2023-05-10T04:55:55;14.60;99.90
22787;DHT22;63134;52.020;4.714;2023-05-10T04:58:40;14.60;99.90
22787;DHT22;63134;52.020;4.714;2023-05-10T05:01:26;14.50;99.90
22787;DHT22;63134;52.020;4.714;2023-05-10T05:04:11;14.60;99.90
22787;DHT22;63134;52.020;4.714;2023-05-10T05:06:57;14.60;99.90
22787;DHT22;63134;52.020;4.714;2023-05-10T05:09:42;14.50;99.90
22787;DHT22;63134;52.020;4.714;2023-05-10T05:12:28;14.50;99.90
22787;DHT22;63134;52.020;4.714;2023-05-10T05:15:13;14.50;99.90
22787;DHT22;63134;52.020;4.714;2023-05-10T05:18:00;14.50;99.90
22787;DHT22;63134;52.020;4.714;2023-05-10T05:20:48;14.60;99.90
22787;DHT22;63134;52.020;4.714;2023-05-10T05:23:35;14.60;99.90
22787;DHT22;63134;52.020;4.714;2023-05-10T05:26:20;14.70;99.90
22787;DHT22;63134;52.020;4.714;2023-05-10T05:29:07;14.80;99.90
22787;DHT22;63134;52.020;4.714;2023-05-10T05:31:53;14.90;99.90
22787;DHT22;63134;52.020;4.714;2023-05-10T05:34:44;14.90;99.90
22787;DHT22;63134;52.020;4.714;2023-05-10T05:37:29;14.90;99.90
22787;DHT22;63134;52.020;4.714;2023-05-10T05:40:15;14.90;99.90
22787;DHT22;63134;52.020;4.714;2023-05-10T05:43:00;14.90;99.90
22787;DHT22;63134;52.020;4.714;2023-05-10T05:45:47;14.90;99.90
22787;DHT22;63134;52.020;4.714;2023-05-10T05:48:32;14.80;99.90
22787;DHT22;63134;52.020;4.714;2023-05-10T05:51:18;14.90;99.90
22787;DHT22;63134;52.020;4.714;2023-05-10T05:54:03;14.80;99.90
22787;DHT22;63134;52.020;4.714;2023-05-10T05:56:49;14.80;99.90
22787;DHT22;63134;52.020;4.714;2023-05-10T05:59:40;14.80;99.90
22787;DHT22;63134;52.020;4.714;2023-05-10T06:02:28;14.80;99.90
22787;DHT22;63134;52.020;4.714;2023-05-10T06:05:14;14.80;99.90
22787;DHT22;63134;52.020;4.714;2023-05-10T06:08:00;14.80;99.90
22787;DHT22;63134;52.020;4.714;2023-05-10T06:10:46;14.80;99.90
22787;DHT22;63134;52.020;4.714;2023-05-10T06:13:31;14.80;99.90
22787;DHT22;63134;52.020;4.714;2023-05-10T06:16:18;14.90;99.90
22787;DHT22;63134;52.020;4.714;2023-05-10T06:19:04;14.90;99.90
22787;DHT22;63134;52.020;4.714;2023-05-10T06:21:49;15.00;99.90
22787;DHT22;63134;52.020;4.714;2023-05-10T06:24:37;15.10;99.90
22787;DHT22;63134;52.020;4.714;2023-05-10T06:27:23;15.10;99.90
22787;DHT22;63134;52.020;4.714;2023-05-10T06:30:10;15.20;99.90
22787;DHT22;63134;52.020;4.714;2023-05-10T06:32:57;15.20;99.90
22787;DHT22;63134;52.020;4.714;2023-05-10T06:35:43;15.30;99.90
22787;DHT22;63134;52.020;4.714;2023-05-10T06:38:29;15.40;99.90
22787;DHT22;63134;52.020;4.714;2023-05-10T06:41:14;15.60;99.90
22787;DHT22;63134;52.020;4.714;2023-05-10T06:44:03;15.70;99.90
22787;DHT22;63134;52.020;4.714;2023-05-10T06:46:49;15.90;99.90
22787;DHT22;63134;52.020;4.714;2023-05-10T06:49:36;16.00;99.90
22787;DHT22;63134;52.020;4.714;2023-05-10T06:52:22;16.00;99.90
22787;DHT22;63134;52.020;4.714;2023-05-10T06:55:08;16.20;99.90
22787;DHT22;63134;52.020;4.714;2023-05-10T06:57:54;16.40;99.90
22787;DHT22;63134;52.020;4.714;2023-05-10T07:00:40;16.50;99.90
22787;DHT22;63134;52.020;4.714;2023-05-10T07:03:28;16.70;99.90
22787;DHT22;63134;52.020;4.714;2023-05-10T07:06:13;17.00;99.90
22787;DHT22;63134;52.020;4.714;2023-05-10T07:09:16;17.10;99.90
22787;DHT22;63134;52.020;4.714;2023-05-10T07:12:02;17.20;99.90
22787;DHT22;63134;52.020;4.714;2023-05-10T07:14:48;17.20;99.90
22787;DHT22;63134;52.020;4.714;2023-05-10T07:17:33;17.10;99.20
22787;DHT22;63134;52.020;4.714;2023-05-10T07:20:19;17.10;99.60
22787;DHT22;63134;52.020;4.714;2023-05-10T07:23:05;17.30;99.90
22787;DHT22;63134;52.020;4.714;2023-05-10T07:25:51;17.40;99.90
22787;DHT22;63134;52.020;4.714;2023-05-10T07:28:39;17.40;99.70
22787;DHT22;63134;52.020;4.714;2023-05-10T07:31:24;17.30;97.90
22787;DHT22;63134;52.020;4.714;2023-05-10T07:34:10;17.00;96.50
22787;DHT22;63134;52.020;4.714;2023-05-10T07:36:57;16.70;96.20
22787;DHT22;63134;52.020;4.714;2023-05-10T07:39:43;16.60;96.50
22787;DHT22;63134;52.020;4.714;2023-05-10T07:42:28;16.60;97.20
22787;DHT22;63134;52.020;4.714;2023-05-10T07:45:17;16.50;96.40
22787;DHT22;63134;52.020;4.714;2023-05-10T07:48:04;16.40;96.20
22787;DHT22;63134;52.020;4.714;2023-05-10T07:50:49;16.20;96.20
22787;DHT22;63134;52.020;4.714;2023-05-10T07:53:35;16.10;96.70
22787;DHT22;63134;52.020;4.714;2023-05-10T07:59:08;16.30;97.50
22787;DHT22;63134;52.020;4.714;2023-05-10T08:01:59;16.40;97.10
22787;DHT22;63134;52.020;4.714;2023-05-10T08:04:45;16.40;96.90
22787;DHT22;63134;52.020;4.714;2023-05-10T08:07:31;16.40;96.60
22787;DHT22;63134;52.020;4.714;2023-05-10T08:10:17;16.40;96.20
22787;DHT22;63134;52.020;4.714;2023-05-10T08:13:03;16.50;96.30
22787;DHT22;63134;52.020;4.714;2023-05-10T08:15:49;16.50;95.70
22787;DHT22;63134;52.020;4.714;2023-05-10T08:18:38;16.50;96.00
22787;DHT22;63134;52.020;4.714;2023-05-10T08:21:24;16.60;96.10
22787;DHT22;63134;52.020;4.714;2023-05-10T08:24:13;16.60;96.00
22787;DHT22;63134;52.020;4.714;2023-05-10T08:26:59;16.70;95.60
22787;DHT22;63134;52.020;4.714;2023-05-10T08:29:45;16.60;95.00
22787;DHT22;63134;52.020;4.714;2023-05-10T08:32:34;16.60;94.40
22787;DHT22;63134;52.020;4.714;2023-05-10T08:35:20;16.50;94.40
22787;DHT22;63134;52.020;4.714;2023-05-10T08:38:06;16.50;94.30
22787;DHT22;63134;52.020;4.714;2023-05-10T08:40:53;16.40;93.60
22787;DHT22;63134;52.020;4.714;2023-05-10T08:43:42;16.40;94.00
22787;DHT22;63134;52.020;4.714;2023-05-10T08:46:33;16.40;94.50
22787;DHT22;63134;52.020;4.714;2023-05-10T08:49:21;16.60;94.60
22787;DHT22;63134;52.020;4.714;2023-05-10T08:52:10;16.70;94.50
22787;DHT22;63134;52.020;4.714;2023-05-10T08:54:58;16.70;93.90
22787;DHT22;63134;52.020;4.714;2023-05-10T08:57:43;16.70;94.10
22787;DHT22;63134;52.020;4.714;2023-05-10T09:00:29;16.70;93.80
22787;DHT22;63134;52.020;4.714;2023-05-10T09:03:16;16.70;93.10
22787;DHT22;63134;52.020;4.714;2023-05-10T09:06:01;16.60;93.10
22787;DHT22;63134;52.020;4.714;2023-05-10T09:08:47;16.40;92.30
22787;DHT22;63134;52.020;4.714;2023-05-10T09:11:39;16.20;92.30
22787;DHT22;63134;52.020;4.714;2023-05-10T09:14:27;16.20;92.80
22787;DHT22;63134;52.020;4.714;2023-05-10T09:17:13;16.10;93.00
22787;DHT22;63134;52.020;4.714;2023-05-10T09:19:59;16.20;93.60
22787;DHT22;63134;52.020;4.714;2023-05-10T09:22:45;16.20;93.50
22787;DHT22;63134;52.020;4.714;2023-05-10T09:25:31;16.30;93.50
22787;DHT22;63134;52.020;4.714;2023-05-10T09:28:18;16.50;94.00
22787;DHT22;63134;52.020;4.714;2023-05-10T09:31:07;16.70;94.40
22787;DHT22;63134;52.020;4.714;2023-05-10T09:33:53;17.00;94.40
22787;DHT22;63134;52.020;4.714;2023-05-10T09:36:57;17.20;94.80
22787;DHT22;63134;52.020;4.714;2023-05-10T09:39:44;17.50;93.40
22787;DHT22;63134;52.020;4.714;2023-05-10T09:42:29;17.50;93.10
22787;DHT22;63134;52.020;4.714;2023-05-10T09:45:15;17.70;93.50
22787;DHT22;63134;52.020;4.714;2023-05-10T09:48:03;17.90;93.20
22787;DHT22;63134;52.020;4.714;2023-05-10T09:50:56;18.10;92.60
22787;DHT22;63134;52.020;4.714;2023-05-10T09:53:42;18.20;92.00
22787;DHT22;63134;52.020;4.714;2023-05-10T09:56:34;18.20;91.40
22787;DHT22;63134;52.020;4.714;2023-05-10T09:59:20;18.10;91.00
22787;DHT22;63134;52.020;4.714;2023-05-10T10:02:06;18.20;91.40
22787;DHT22;63134;52.020;4.714;2023-05-10T10:04:52;18.30;91.40
22787;DHT22;63134;52.020;4.714;2023-05-10T10:07:38;18.50;91.50
22787;DHT22;63134;52.020;4.714;2023-05-10T10:10:25;18.70;90.90
22787;DHT22;63134;52.020;4.714;2023-05-10T10:13:10;18.80;90.70
22787;DHT22;63134;52.020;4.714;2023-05-10T10:15:57;18.70;89.50
22787;DHT22;63134;52.020;4.714;2023-05-10T10:18:43;18.80;90.40
22787;DHT22;63134;52.020;4.714;2023-05-10T10:21:29;18.90;90.00
22787;DHT22;63134;52.020;4.714;2023-05-10T10:24:14;18.90;88.40
22787;DHT22;63134;52.020;4.714;2023-05-10T10:36:13;18.80;88.50
22787;DHT22;63134;52.020;4.714;2023-05-10T10:39:00;18.90;88.20
22787;DHT22;63134;52.020;4.714;2023-05-10T10:41:53;18.80;87.20
22787;DHT22;63134;52.020;4.714;2023-05-10T10:44:39;18.70;86.20
22787;DHT22;63134;52.020;4.714;2023-05-10T10:47:28;18.70;87.00
22787;DHT22;63134;52.020;4.714;2023-05-10T10:50:18;19.00;88.80
22787;DHT22;63134;52.020;4.714;2023-05-10T10:53:10;19.40;87.90
22787;DHT22;63134;52.020;4.714;2023-05-10T10:56:08;19.80;85.20
22787;DHT22;63134;52.020;4.714;2023-05-10T10:58:59;19.80;80.10
22787;DHT22;63134;52.020;4.714;2023-05-10T11:01:44;19.80;81.80
22787;DHT22;63134;52.020;4.714;2023-05-10T11:04:43;19.50;78.70
22787;DHT22;63134;52.020;4.714;2023-05-10T11:07:32;19.20;80.60
22787;DHT22;63134;52.020;4.714;2023-05-10T11:10:22;19.10;80.40
22787;DHT22;63134;52.020;4.714;2023-05-10T11:13:09;18.90;80.40
22787;DHT22;63134;52.020;4.714;2023-05-10T11:15:55;18.70;81.40
22787;DHT22;63134;52.020;4.714;2023-05-10T11:24:33;18.00;83.30
22787;DHT22;63134;52.020;4.714;2023-05-10T11:27:19;17.90;85.60
22787;DHT22;63134;52.020;4.714;2023-05-10T11:30:06;17.80;85.20
22787;DHT22;63134;52.020;4.714;2023-05-10T11:32:52;17.80;85.80
22787;DHT22;63134;52.020;4.714;2023-05-10T11:35:40;17.90;85.70
22787;DHT22;63134;52.020;4.714;2023-05-10T11:38:27;17.80;85.90
22787;DHT22;63134;52.020;4.714;2023-05-10T11:41:14;17.90;86.80
22787;DHT22;63134;52.020;4.714;2023-05-10T11:44:00;17.90;86.60
22787;DHT22;63134;52.020;4.714;2023-05-10T11:46:49;18.10;87.40
22787;DHT22;63134;52.020;4.714;2023-05-10T11:49:35;18.40;86.80
22787;DHT22;63134;52.020;4.714;2023-05-10T11:52:20;18.50;85.20
22787;DHT22;63134;52.020;4.714;2023-05-10T11:55:07;18.60;85.70
22787;DHT22;63134;52.020;4.714;2023-05-10T11:57:54;18.70;84.50
22787;DHT22;63134;52.020;4.714;2023-05-10T12:00:40;18.70;84.00
22787;DHT22;63134;52.020;4.714;2023-05-10T12:03:26;18.80;83.80
22787;DHT22;63134;52.020;4.714;2023-05-10T12:06:11;18.90;84.30
22787;DHT22;63134;52.020;4.714;2023-05-10T12:08:58;19.00;83.80
22787;DHT22;63134;52.020;4.714;2023-05-10T12:11:43;19.00;83.10
22787;DHT22;63134;52.020;4.714;2023-05-10T12:14:34;19.10;83.30
22787;DHT22;63134;52.020;4.714;2023-05-10T12:17:20;19.40;82.80
22787;DHT22;63134;52.020;4.714;2023-05-10T12:20:19;19.60;81.80
22787;DHT22;63134;52.020;4.714;2023-05-10T12:23:10;20.00;82.20
22787;DHT22;63134;52.020;4.714;2023-05-10T12:26:02;20.20;78.70
22787;DHT22;63134;52.020;4.714;2023-05-10T12:28:50;20.40;77.50
22787;DHT22;63134;52.020;4.714;2023-05-10T12:31:55;20.70;77.00
22787;DHT22;63134;52.020;4.714;2023-05-10T12:34:42;21.20;75.60
22787;DHT22;63134;52.020;4.714;2023-05-10T12:37:28;21.70;73.40
22787;DHT22;63134;52.020;4.714;2023-05-10T12:40:15;21.80;71.90
22787;DHT22;63134;52.020;4.714;2023-05-10T12:43:01;21.70;70.90
22787;DHT22;63134;52.020;4.714;2023-05-10T12:45:47;21.40;69.90
22787;DHT22;63134;52.020;4.714;2023-05-10T12:48:35;21.20;70.60
22787;DHT22;63134;52.020;4.714;2023-05-10T12:51:20;21.30;71.40
22787;DHT22;63134;52.020;4.714;2023-05-10T12:54:07;21.40;71.60
22787;DHT22;63134;52.020;4.714;2023-05-10T12:56:53;21.60;71.40
22787;DHT22;63134;52.020;4.714;2023-05-10T12:59:38;21.50;69.20
22787;DHT22;63134;52.020;4.714;2023-05-10T13:02:24;21.30;69.20
22787;DHT22;63134;52.020;4.714;2023-05-10T13:05:09;21.10;69.30
22787;DHT22;63134;52.020;4.714;2023-05-10T13:07:54;20.80;68.80
22787;DHT22;63134;52.020;4.714;2023-05-10T13:10:40;20.70;70.00
22787;DHT22;63134;52.020;4.714;2023-05-10T13:13:26;20.30;70.30
22787;DHT22;63134;52.020;4.714;2023-05-10T13:16:11;20.10;71.10
22787;DHT22;63134;52.020;4.714;2023-05-10T13:18:59;19.80;70.80
22787;DHT22;63134;52.020;4.714;2023-05-10T13:21:46;19.30;71.40
22787;DHT22;63134;52.020;4.714;2023-05-10T13:24:32;18.80;73.40
22787;DHT22;63134;52.020;4.714;2023-05-10T13:27:20;18.70;75.00
22787;DHT22;63134;52.020;4.714;2023-05-10T13:30:07;18.60;75.50
22787;DHT22;63134;52.020;4.714;2023-05-10T13:32:53;18.60;76.20
22787;DHT22;63134;52.020;4.714;2023-05-10T13:35:38;18.50;75.90
22787;DHT22;63134;52.020;4.714;2023-05-10T13:38:24;18.40;77.60
22787;DHT22;63134;52.020;4.714;2023-05-10T13:41:11;18.50;77.70
22787;DHT22;63134;52.020;4.714;2023-05-10T13:43:57;18.50;77.80
22787;DHT22;63134;52.020;4.714;2023-05-10T13:46:42;18.60;78.00
22787;DHT22;63134;52.020;4.714;2023-05-10T13:49:28;18.50;77.00
22787;DHT22;63134;52.020;4.714;2023-05-10T13:52:13;18.40;77.60
22787;DHT22;63134;52.020;4.714;2023-05-10T13:54:58;18.50;78.10
22787;DHT22;63134;52.020;4.714;2023-05-10T13:57:45;18.50;77.70
22787;DHT22;63134;52.020;4.714;2023-05-10T14:00:37;18.40;77.20
22787;DHT22;63134;52.020;4.714;2023-05-10T14:03:23;18.40;77.80
22787;DHT22;63134;52.020;4.714;2023-05-10T14:06:09;18.30;77.90
22787;DHT22;63134;52.020;4.714;2023-05-10T14:08:54;18.30;78.30
22787;DHT22;63134;52.020;4.714;2023-05-10T14:11:40;18.30;78.80
22787;DHT22;63134;52.020;4.714;2023-05-10T14:14:28;18.40;78.50
22787;DHT22;63134;52.020;4.714;2023-05-10T14:17:14;18.50;78.30
22787;DHT22;63134;52.020;4.714;2023-05-10T14:20:00;18.60;78.20
22787;DHT22;63134;52.020;4.714;2023-05-10T14:22:47;18.80;78.50
22787;DHT22;63134;52.020;4.714;2023-05-10T14:25:33;18.90;77.90
22787;DHT22;63134;52.020;4.714;2023-05-10T14:28:19;19.10;77.90
22787;DHT22;63134;52.020;4.714;2023-05-10T14:31:06;19.20;77.40
22787;DHT22;63134;52.020;4.714;2023-05-10T14:33:52;19.30;76.50
22787;DHT22;63134;52.020;4.714;2023-05-10T14:36:38;19.30;76.00
22787;DHT22;63134;52.020;4.714;2023-05-10T14:39:24;19.20;75.40
22787;DHT22;63134;52.020;4.714;2023-05-10T14:42:09;19.20;75.50
22787;DHT22;63134;52.020;4.714;2023-05-10T14:44:55;19.20;75.70
22787;DHT22;63134;52.020;4.714;2023-05-10T14:47:40;19.30;75.60
22787;DHT22;63134;52.020;4.714;2023-05-10T14:50:26;19.30;75.00
22787;DHT22;63134;52.020;4.714;2023-05-10T14:53:21;19.20;74.60
22787;DHT22;63134;52.020;4.714;2023-05-10T14:56:06;19.40;75.00
22787;DHT22;63134;52.020;4.714;2023-05-10T14:58:52;19.50;75.20
22787;DHT22;63134;52.020;4.714;2023-05-10T15:01:39;19.70;74.40
22787;DHT22;63134;52.020;4.714;2023-05-10T15:04:27;19.70;74.00
22787;DHT22;63134;52.020;4.714;2023-05-10T15:07:14;19.70;74.10
22787;DHT22;63134;52.020;4.714;2023-05-10T15:10:01;19.70;73.60
22787;DHT22;63134;52.020;4.714;2023-05-10T15:12:47;19.80;74.20
22787;DHT22;63134;52.020;4.714;2023-05-10T15:15:36;19.80;73.60
22787;DHT22;63134;52.020;4.714;2023-05-10T15:18:21;19.80;72.90
22787;DHT22;63134;52.020;4.714;2023-05-10T15:21:08;19.80;72.50
22787;DHT22;63134;52.020;4.714;2023-05-10T15:23:54;19.80;72.30
22787;DHT22;63134;52.020;4.714;2023-05-10T15:26:39;19.70;72.80
22787;DHT22;63134;52.020;4.714;2023-05-10T15:29:26;19.70;72.80
22787;DHT22;63134;52.020;4.714;2023-05-10T15:32:11;19.80;73.30
22787;DHT22;63134;52.020;4.714;2023-05-10T15:34:57;19.80;72.40
22787;DHT22;63134;52.020;4.714;2023-05-10T15:37:43;19.80;72.50
22787;DHT22;63134;52.020;4.714;2023-05-10T15:40:28;19.80;72.30
22787;DHT22;63134;52.020;4.714;2023-05-10T15:43:14;19.80;72.10
22787;DHT22;63134;52.020;4.714;2023-05-10T15:46:00;19.80;72.10
22787;DHT22;63134;52.020;4.714;2023-05-10T15:48:47;19.70;71.70
22787;DHT22;63134;52.020;4.714;2023-05-10T15:51:32;19.60;72.10
22787;DHT22;63134;52.020;4.714;2023-05-10T15:54:21;19.70;72.50
22787;DHT22;63134;52.020;4.714;2023-05-10T15:57:06;19.70;72.30
22787;DHT22;63134;52.020;4.714;2023-05-10T15:59:52;19.70;72.70
22787;DHT22;63134;52.020;4.714;2023-05-10T16:02:41;19.70;72.50
22787;DHT22;63134;52.020;4.714;2023-05-10T16:05:27;19.80;72.40
22787;DHT22;63134;52.020;4.714;2023-05-10T16:08:17;19.90;72.10
22787;DHT22;63134;52.020;4.714;2023-05-10T16:11:02;19.90;72.00
22787;DHT22;63134;52.020;4.714;2023-05-10T16:13:48;20.00;72.20
22787;DHT22;63134;52.020;4.714;2023-05-10T16:16:34;20.00;72.00
22787;DHT22;63134;52.020;4.714;2023-05-10T16:19:20;20.00;71.70
22787;DHT22;63134;52.020;4.714;2023-05-10T16:22:06;20.00;71.50
22787;DHT22;63134;52.020;4.714;2023-05-10T16:24:55;20.00;71.80
22787;DHT22;63134;52.020;4.714;2023-05-10T16:27:41;20.00;71.10
22787;DHT22;63134;52.020;4.714;2023-05-10T16:30:27;19.90;71.90
22787;DHT22;63134;52.020;4.714;2023-05-10T16:33:15;19.90;71.80
22787;DHT22;63134;52.020;4.714;2023-05-10T16:36:00;20.10;71.50
22787;DHT22;63134;52.020;4.714;2023-05-10T16:38:46;20.30;71.70
22787;DHT22;63134;52.020;4.714;2023-05-10T16:41:32;20.60;70.90
22787;DHT22;63134;52.020;4.714;2023-05-10T16:44:18;20.80;70.40
22787;DHT22;63134;52.020;4.714;2023-05-10T16:47:06;21.00;69.40
22787;DHT22;63134;52.020;4.714;2023-05-10T16:49:51;21.30;68.40
22787;DHT22;63134;52.020;4.714;2023-05-10T16:52:37;21.30;68.00
22787;DHT22;63134;52.020;4.714;2023-05-10T16:55:22;21.20;67.20
22787;DHT22;63134;52.020;4.714;2023-05-10T16:58:10;21.10;67.30
22787;DHT22;63134;52.020;4.714;2023-05-10T17:00:56;21.00;67.50
22787;DHT22;63134;52.020;4.714;2023-05-10T17:03:42;20.90;68.00
22787;DHT22;63134;52.020;4.714;2023-05-10T17:06:28;20.80;67.70
22787;DHT22;63134;52.020;4.714;2023-05-10T17:09:13;20.70;67.50
22787;DHT22;63134;52.020;4.714;2023-05-10T17:11:58;20.40;67.50
22787;DHT22;63134;52.020;4.714;2023-05-10T17:14:44;20.20;67.80
22787;DHT22;63134;52.020;4.714;2023-05-10T17:17:30;20.00;68.10
22787;DHT22;63134;52.020;4.714;2023-05-10T17:20:16;19.80;69.10
22787;DHT22;63134;52.020;4.714;2023-05-10T17:23:02;19.60;69.70
22787;DHT22;63134;52.020;4.714;2023-05-10T17:25:47;19.50;70.30
22787;DHT22;63134;52.020;4.714;2023-05-10T17:28:33;19.20;70.50
22787;DHT22;63134;52.020;4.714;2023-05-10T17:31:18;19.10;71.80
22787;DHT22;63134;52.020;4.714;2023-05-10T17:34:04;19.10;72.10
22787;DHT22;63134;52.020;4.714;2023-05-10T17:36:50;19.00;72.30
22787;DHT22;63134;52.020;4.714;2023-05-10T17:39:35;18.90;72.70
22787;DHT22;63134;52.020;4.714;2023-05-10T17:42:23;18.90;73.00
22787;DHT22;63134;52.020;4.714;2023-05-10T17:45:10;18.90;73.30
22787;DHT22;63134;52.020;4.714;2023-05-10T17:47:56;18.70;73.00
22787;DHT22;63134;52.020;4.714;2023-05-10T17:50:41;18.70;74.10
22787;DHT22;63134;52.020;4.714;2023-05-10T17:53:27;18.70;73.70
22787;DHT22;63134;52.020;4.714;2023-05-10T17:56:14;18.60;73.30
22787;DHT22;63134;52.020;4.714;2023-05-10T17:58:59;18.50;73.90
22787;DHT22;63134;52.020;4.714;2023-05-10T18:01:45;18.30;74.20
22787;DHT22;63134;52.020;4.714;2023-05-10T18:04:31;18.30;74.90
22787;DHT22;63134;52.020;4.714;2023-05-10T18:07:17;18.30;75.00
22787;DHT22;63134;52.020;4.714;2023-05-10T18:10:03;18.20;75.00
22787;DHT22;63134;52.020;4.714;2023-05-10T18:12:48;18.10;75.20